sensor_id;sensor_type;location;lat;lon;timestamp;pressure;altitude;pressure_sealevel;temperature;humidity
48216;BME280;34005;48.844;10.098;2023-01-08T00:00:20;96187.66;;;4.68;74.18
48216;BME280;34005;48.844;10.098;2023-01-08T00:02:47;96183.81;;;4.72;73.92
48216;BME280;34005;48.844;10.098;2023-01-08T00:05:16;96187.06;;;4.74;73.93
48216;BME280;34005;48.844;10.098;2023-01-08T00:07:45;96188.84;;;4.73;73.51
48216;BME280;34005;48.844;10.098;2023-01-08T00:10:13;96193.19;;;4.73;73.77
48216;BME280;34005;48.844;10.098;2023-01-08T00:12:40;96199.31;;;4.72;73.52
48216;BME280;34005;48.844;10.098;2023-01-08T00:15:08;96188.19;;;4.71;73.44
48216;BME280;34005;48.844;10.098;2023-01-08T00:17:36;96183.34;;;4.68;73.75
48216;BME280;34005;48.844;10.098;2023-01-08T00:20:04;96183.47;;;4.67;73.96
48216;BME280;34005;48.844;10.098;2023-01-08T00:22:32;96176.84;;;4.64;73.54
48216;BME280;34005;48.844;10.098;2023-01-08T00:25:01;96179.28;;;4.66;73.68
48216;BME280;34005;48.844;10.098;2023-01-08T00:27:28;96176.84;;;4.64;73.47
48216;BME280;34005;48.844;10.098;2023-01-08T00:29:56;96181.69;;;4.67;73.92
48216;BME280;34005;48.844;10.098;2023-01-08T00:32:24;96164.41;;;4.68;73.76
48216;BME280;34005;48.844;10.098;2023-01-08T00:34:51;96162.16;;;4.65;73.43
48216;BME280;34005;48.844;10.098;2023-01-08T00:37:19;96166.66;;;4.63;73.83
48216;BME280;34005;48.844;10.098;2023-01-08T00:39:47;96157.31;;;4.62;73.50
48216;BME280;34005;48.844;10.098;2023-01-08T00:42:16;96160.03;;;4.60;73.50
48216;BME280;34005;48.844;10.098;2023-01-08T00:44:43;96159.25;;;4.60;73.42
48216;BME280;34005;48.844;10.098;2023-01-08T00:47:11;96147.28;;;4.59;73.70
48216;BME280;34005;48.844;10.098;2023-01-08T00:49:40;96150.84;;;4.58;73.62
48216;BME280;34005;48.844;10.098;2023-01-08T00:52:07;96149.19;;;4.57;73.89
48216;BME280;34005;48.844;10.098;2023-01-08T00:54:35;96148.41;;;4.56;73.63
48216;BME280;34005;48.844;10.098;2023-01-08T00:57:02;96147.44;;;4.57;73.84
48216;BME280;34005;48.844;10.098;2023-01-08T00:59:31;96152.44;;;4.59;73.60
48216;BME280;34005;48.844;10.098;2023-01-08T01:01:59;96136.94;;;4.59;73.98
48216;BME280;34005;48.844;10.098;2023-01-08T01:04:26;96136.94;;;4.59;73.78
48216;BME280;34005;48.844;10.098;2023-01-08T01:06:54;96140.34;;;4.59;73.73
48216;BME280;34005;48.844;10.098;2023-01-08T01:09:22;96128.25;;;4.60;73.90
48216;BME280;34005;48.844;10.098;2023-01-08T01:11:49;96124.69;;;4.61;73.54
48216;BME280;34005;48.844;10.098;2023-01-08T01:14:17;96121.16;;;4.62;73.65
48216;BME280;34005;48.844;10.098;2023-01-08T01:16:46;96123.56;;;4.63;73.60
48216;BME280;34005;48.844;10.098;2023-01-08T01:19:14;96121.63;;;4.65;73.95
48216;BME280;34005;48.844;10.098;2023-01-08T01:21:42;96121.47;;;4.67;73.43
48216;BME280;34005;48.844;10.098;2023-01-08T01:24:11;96108.56;;;4.67;73.83
48216;BME280;34005;48.844;10.098;2023-01-08T01:26:39;96109.22;;;4.69;73.95
48216;BME280;34005;48.844;10.098;2023-01-08T01:29:07;96104.56;;;4.72;73.45
48216;BME280;34005;48.844;10.098;2023-01-08T01:31:35;96107.63;;;4.76;73.39
48216;BME280;34005;48.844;10.098;2023-01-08T01:34:04;96116.53;;;4.82;73.82
48216;BME280;34005;48.844;10.098;2023-01-08T01:36:31;96118.97;;;4.83;73.47
48216;BME280;34005;48.844;10.098;2023-01-08T01:38:58;96114.41;;;4.85;73.33
48216;BME280;34005;48.844;10.098;2023-01-08T01:41:28;96121.06;;;4.88;73.53
48216;BME280;34005;48.844;10.098;2023-01-08T01:43:58;96111.19;;;4.91;72.96
48216;BME280;34005;48.844;10.098;2023-01-08T01:46:34;96106.69;;;4.93;73.36
48216;BME280;34005;48.844;10.098;2023-01-08T01:49:07;96107.66;;;4.92;73.23
48216;BME280;34005;48.844;10.098;2023-01-08T01:51:37;96106.69;;;4.93;72.87
48216;BME280;34005;48.844;10.098;2023-01-08T01:54:08;96103.81;;;4.97;73.16
48216;BME280;34005;48.844;10.098;2023-01-08T01:56:37;96108.31;;;5.03;72.97
48216;BME280;34005;48.844;10.098;2023-01-08T01:59:05;96109.63;;;5.07;72.72
48216;BME280;34005;48.844;10.098;2023-01-08T02:01:33;96108.97;;;5.05;72.50
48216;BME280;34005;48.844;10.098;2023-01-08T02:04:01;96121.88;;;5.05;72.54
48216;BME280;34005;48.844;10.098;2023-01-08T02:06:34;96127.56;;;5.08;72.15
48216;BME280;34005;48.844;10.098;2023-01-08T02:09:07;96129.81;;;5.11;72.43
48216;BME280;34005;48.844;10.098;2023-01-08T02:11:43;96120.47;;;5.10;71.67
48216;BME280;34005;48.844;10.098;2023-01-08T02:14:16;96115.13;;;5.12;72.15
48216;BME280;34005;48.844;10.098;2023-01-08T02:16:54;96122.41;;;5.16;71.66
48216;BME280;34005;48.844;10.098;2023-01-08T02:19:36;96121.28;;;5.19;71.31
48216;BME280;34005;48.844;10.098;2023-01-08T02:22:15;96118.69;;;5.19;71.40
48216;BME280;34005;48.844;10.098;2023-01-08T02:24:54;96124.81;;;5.18;71.42
48216;BME280;34005;48.844;10.098;2023-01-08T02:27:25;96117.72;;;5.20;71.40
48216;BME280;34005;48.844;10.098;2023-01-08T02:29:55;96111.44;;;5.23;71.08
48216;BME280;34005;48.844;10.098;2023-01-08T02:32:25;96115.78;;;5.22;71.06
48216;BME280;34005;48.844;10.098;2023-01-08T02:34:54;96112.38;;;5.22;71.31
48216;BME280;34005;48.844;10.098;2023-01-08T02:37:21;96094.44;;;5.20;71.16
48216;BME280;34005;48.844;10.098;2023-01-08T02:40:05;96084.44;;;5.17;71.59
48216;BME280;34005;48.844;10.098;2023-01-08T02:42:40;96081.19;;;5.15;71.23
48216;BME280;34005;48.844;10.098;2023-01-08T02:45:19;96062.44;;;5.13;71.06
48216;BME280;34005;48.844;10.098;2023-01-08T02:47:50;96058.91;;;5.14;71.08
48216;BME280;34005;48.844;10.098;2023-01-08T02:50:24;96061.50;;;5.14;71.31
48216;BME280;34005;48.844;10.098;2023-01-08T02:52:57;96051.94;;;5.14;71.18
48216;BME280;34005;48.844;10.098;2023-01-08T02:55:28;96052.59;;;5.16;71.10
48216;BME280;34005;48.844;10.098;2023-01-08T02:57:59;96037.56;;;5.20;71.60
48216;BME280;34005;48.844;10.098;2023-01-08T03:00:27;96033.69;;;5.24;71.00
48216;BME280;34005;48.844;10.098;2023-01-08T03:03:02;96033.69;;;5.24;70.64
48216;BME280;34005;48.844;10.098;2023-01-08T03:05:32;96031.75;;;5.26;71.17
48216;BME280;34005;48.844;10.098;2023-01-08T03:08:01;96029.16;;;5.26;70.76
48216;BME280;34005;48.844;10.098;2023-01-08T03:10:29;96026.56;;;5.26;70.61
48216;BME280;34005;48.844;10.098;2023-01-08T03:13:01;96017.38;;;5.24;70.44
48216;BME280;34005;48.844;10.098;2023-01-08T03:15:36;96014.63;;;5.17;69.88
48216;BME280;34005;48.844;10.098;2023-01-08T03:25:56;96013.66;;;5.02;71.11
48216;BME280;34005;48.844;10.098;2023-01-08T03:28:56;95998.16;;;5.02;71.18
48216;BME280;34005;48.844;10.098;2023-01-08T03:32:04;95995.41;;;5.03;71.10
48216;BME280;34005;48.844;10.098;2023-01-08T03:35:42;95997.16;;;5.03;70.88
48216;BME280;34005;48.844;10.098;2023-01-08T03:43:13;95995.56;;;5.10;71.01
48216;BME280;34005;48.844;10.098;2023-01-08T04:18:44;95973.44;;;5.07;71.37
48216;BME280;34005;48.844;10.098;2023-01-08T04:21:15;95963.41;;;5.04;71.30
48216;BME280;34005;48.844;10.098;2023-01-08T04:23:43;95968.41;;;4.98;71.51
48216;BME280;34005;48.844;10.098;2023-01-08T04:26:10;95962.28;;;4.90;71.80
48216;BME280;34005;48.844;10.098;2023-01-08T04:28:38;95973.09;;;4.86;72.00
48216;BME280;34005;48.844;10.098;2023-01-08T04:31:06;95969.38;;;4.80;72.20
48216;BME280;34005;48.844;10.098;2023-01-08T04:33:34;95972.13;;;4.79;72.36
48216;BME280;34005;48.844;10.098;2023-01-08T04:36:04;95974.41;;;4.82;72.68
48216;BME280;34005;48.844;10.098;2023-01-08T04:38:32;95962.28;;;4.82;72.84
48216;BME280;34005;48.844;10.098;2023-01-08T04:41:00;95967.28;;;4.84;73.15
48216;BME280;34005;48.844;10.098;2023-01-08T04:43:28;95970.69;;;4.92;73.02
48216;BME280;34005;48.844;10.098;2023-01-08T04:45:56;95977.16;;;4.97;72.70
48216;BME280;34005;48.844;10.098;2023-01-08T04:48:24;95962.09;;;5.00;72.81
48216;BME280;34005;48.844;10.098;2023-01-08T04:50:52;95971.66;;;5.08;72.67
48216;BME280;34005;48.844;10.098;2023-01-08T04:53:21;95976.19;;;5.14;72.61
48216;BME280;34005;48.844;10.098;2023-01-08T04:55:48;95973.91;;;5.19;72.55
48216;BME280;34005;48.844;10.098;2023-01-08T04:58:16;95979.22;;;5.26;72.48
48216;BME280;34005;48.844;10.098;2023-01-08T05:00:43;95977.78;;;5.31;72.65
48216;BME280;34005;48.844;10.098;2023-01-08T05:03:11;95979.22;;;5.34;72.48
48216;BME280;34005;48.844;10.098;2023-01-08T05:05:40;95970.31;;;5.36;72.62
48216;BME280;34005;48.844;10.098;2023-01-08T05:08:07;95975.97;;;5.40;72.28
48216;BME280;34005;48.844;10.098;2023-01-08T05:10:36;95973.06;;;5.43;72.59
48216;BME280;34005;48.844;10.098;2023-01-08T05:13:04;95966.59;;;5.47;72.38
48216;BME280;34005;48.844;10.098;2023-01-08T05:15:31;95970.63;;;5.50;72.50
48216;BME280;34005;48.844;10.098;2023-01-08T05:18:00;95972.06;;;5.52;72.47
48216;BME280;34005;48.844;10.098;2023-01-08T05:20:27;95974.47;;;5.54;72.31
48216;BME280;34005;48.844;10.098;2023-01-08T05:22:55;95968.31;;;5.55;72.70
48216;BME280;34005;48.844;10.098;2023-01-08T05:25:24;95964.63;;;5.57;72.33
48216;BME280;34005;48.844;10.098;2023-01-08T05:27:53;95967.81;;;5.60;72.39
48216;BME280;34005;48.844;10.098;2023-01-08T05:30:20;95976.41;;;5.60;72.41
48216;BME280;34005;48.844;10.098;2023-01-08T05:32:48;95975.13;;;5.56;72.00
48216;BME280;34005;48.844;10.098;2023-01-08T05:35:15;95970.47;;;5.51;72.31
48216;BME280;34005;48.844;10.098;2023-01-08T05:37:43;95969.00;;;5.49;72.24
48216;BME280;34005;48.844;10.098;2023-01-08T05:40:11;95971.41;;;5.42;72.40
48216;BME280;34005;48.844;10.098;2023-01-08T05:42:38;95975.63;;;5.43;72.56
48216;BME280;34005;48.844;10.098;2023-01-08T05:45:08;95978.06;;;5.45;72.65
48216;BME280;34005;48.844;10.098;2023-01-08T05:47:35;95980.47;;;5.46;72.28
48216;BME280;34005;48.844;10.098;2023-01-08T05:50:04;95977.72;;;5.48;72.30
48216;BME280;34005;48.844;10.098;2023-01-08T05:52:31;95975.94;;;5.48;72.55
48216;BME280;34005;48.844;10.098;2023-01-08T05:54:59;95983.38;;;5.51;72.47
48216;BME280;34005;48.844;10.098;2023-01-08T05:57:26;95977.06;;;5.54;72.32
48216;BME280;34005;48.844;10.098;2023-01-08T05:59:54;95970.91;;;5.55;72.29
48216;BME280;34005;48.844;10.098;2023-01-08T06:02:23;95973.97;;;5.58;72.29
48216;BME280;34005;48.844;10.098;2023-01-08T06:04:50;95980.09;;;5.66;72.12
48216;BME280;34005;48.844;10.098;2023-01-08T06:07:18;95975.41;;;5.69;72.08
48216;BME280;34005;48.844;10.098;2023-01-08T06:09:45;95968.28;;;5.71;72.14
48216;BME280;34005;48.844;10.098;2023-01-08T06:12:13;95962.31;;;5.71;71.92
48216;BME280;34005;48.844;10.098;2023-01-08T06:14:40;95959.53;;;5.72;72.00
48216;BME280;34005;48.844;10.098;2023-01-08T06:17:08;95964.06;;;5.70;71.65
48216;BME280;34005;48.844;10.098;2023-01-08T06:19:37;95973.47;;;5.71;72.08
48216;BME280;34005;48.844;10.098;2023-01-08T06:22:05;95967.31;;;5.72;72.01
48216;BME280;34005;48.844;10.098;2023-01-08T06:24:32;95957.59;;;5.74;72.08
48216;BME280;34005;48.844;10.098;2023-01-08T06:27:00;95965.22;;;5.76;72.00
48216;BME280;34005;48.844;10.098;2023-01-08T06:29:27;95956.94;;;5.81;71.75
48216;BME280;34005;48.844;10.098;2023-01-08T06:31:55;95960.16;;;5.83;71.79
48216;BME280;34005;48.844;10.098;2023-01-08T06:34:22;95967.78;;;5.84;71.77
48216;BME280;34005;48.844;10.098;2023-01-08T06:36:51;95972.94;;;5.84;71.38
48216;BME280;34005;48.844;10.098;2023-01-08T06:39:19;95970.81;;;5.88;71.75
48216;BME280;34005;48.844;10.098;2023-01-08T06:41:46;95961.44;;;5.87;71.33
48216;BME280;34005;48.844;10.098;2023-01-08T06:44:14;95955.00;;;5.83;71.58
48216;BME280;34005;48.844;10.098;2023-01-08T06:46:41;95961.31;;;5.80;71.76
48216;BME280;34005;48.844;10.098;2023-01-08T06:49:09;95959.88;;;5.77;71.79
48216;BME280;34005;48.844;10.098;2023-01-08T06:51:37;95952.41;;;5.74;71.88
48216;BME280;34005;48.844;10.098;2023-01-08T06:54:05;95950.19;;;5.71;71.64
48216;BME280;34005;48.844;10.098;2023-01-08T06:56:33;95960.69;;;5.70;71.60
48216;BME280;34005;48.844;10.098;2023-01-08T06:59:18;95964.72;;;5.72;71.51
48216;BME280;34005;48.844;10.098;2023-01-08T07:01:45;95967.31;;;5.72;71.88
48216;BME280;34005;48.844;10.098;2023-01-08T07:04:13;95983.03;;;5.71;71.48
48216;BME280;34005;48.844;10.098;2023-01-08T07:06:41;95980.59;;;5.69;71.61
48216;BME280;34005;48.844;10.098;2023-01-08T07:09:11;95978.00;;;5.69;71.83
48216;BME280;34005;48.844;10.098;2023-01-08T07:11:39;95968.94;;;5.65;71.54
48216;BME280;34005;48.844;10.098;2023-01-08T07:14:07;95965.72;;;5.63;71.77
48216;BME280;34005;48.844;10.098;2023-01-08T07:16:37;95960.25;;;5.58;71.87
48216;BME280;34005;48.844;10.098;2023-01-08T07:19:04;95963.97;;;5.55;71.99
48216;BME280;34005;48.844;10.098;2023-01-08T07:21:32;95963.50;;;5.52;71.85
48216;BME280;34005;48.844;10.098;2023-01-08T07:23:59;95957.03;;;5.48;72.04
48216;BME280;34005;48.844;10.098;2023-01-08T07:26:28;95964.00;;;5.47;71.91
48216;BME280;34005;48.844;10.098;2023-01-08T07:28:56;95960.91;;;5.44;72.23
48216;BME280;34005;48.844;10.098;2023-01-08T07:31:23;95964.50;;;5.43;72.28
48216;BME280;34005;48.844;10.098;2023-01-08T07:33:51;95964.50;;;5.43;72.10
48216;BME280;34005;48.844;10.098;2023-01-08T07:36:19;95966.09;;;5.44;72.12
48216;BME280;34005;48.844;10.098;2023-01-08T07:38:48;95969.66;;;5.43;72.39
48216;BME280;34005;48.844;10.098;2023-01-08T07:41:16;95966.09;;;5.44;72.16
48216;BME280;34005;48.844;10.098;2023-01-08T07:43:47;95971.25;;;5.44;72.27
48216;BME280;34005;48.844;10.098;2023-01-08T07:46:15;95964.16;;;5.46;72.41
48216;BME280;34005;48.844;10.098;2023-01-08T07:48:42;95967.72;;;5.45;72.46
48216;BME280;34005;48.844;10.098;2023-01-08T07:51:10;95982.25;;;5.46;72.72
48216;BME280;34005;48.844;10.098;2023-01-08T07:53:37;95979.50;;;5.47;72.62
48216;BME280;34005;48.844;10.098;2023-01-08T07:56:07;95973.69;;;5.45;72.27
48216;BME280;34005;48.844;10.098;2023-01-08T07:58:35;95956.88;;;5.41;72.32
48216;BME280;34005;48.844;10.098;2023-01-08T08:01:07;95962.41;;;5.38;72.55
48216;BME280;34005;48.844;10.098;2023-01-08T08:03:36;95967.56;;;5.38;72.65
48216;BME280;34005;48.844;10.098;2023-01-08T08:06:04;95954.66;;;5.38;72.40
48216;BME280;34005;48.844;10.098;2023-01-08T08:08:32;95970.31;;;5.36;72.50
48216;BME280;34005;48.844;10.098;2023-01-08T08:10:59;95969.53;;;5.36;72.39
48216;BME280;34005;48.844;10.098;2023-01-08T08:13:27;95971.47;;;5.34;72.89
48216;BME280;34005;48.844;10.098;2023-01-08T08:15:54;95960.28;;;5.33;72.99
48216;BME280;34005;48.844;10.098;2023-01-08T08:18:23;95960.28;;;5.33;72.62
48216;BME280;34005;48.844;10.098;2023-01-08T08:20:51;95948.34;;;5.32;72.77
48216;BME280;34005;48.844;10.098;2023-01-08T08:23:18;95955.31;;;5.32;73.12
48216;BME280;34005;48.844;10.098;2023-01-08T08:25:46;95971.94;;;5.29;73.17
48216;BME280;34005;48.844;10.098;2023-01-08T08:28:13;95980.50;;;5.30;73.16
48216;BME280;34005;48.844;10.098;2023-01-08T08:30:41;95991.31;;;5.33;73.55
48216;BME280;34005;48.844;10.098;2023-01-08T08:33:09;95983.56;;;5.33;73.24
48216;BME280;34005;48.844;10.098;2023-01-08T08:35:38;95977.59;;;5.33;73.86
48216;BME280;34005;48.844;10.098;2023-01-08T08:38:06;95975.50;;;5.36;73.73
48216;BME280;34005;48.844;10.098;2023-01-08T08:40:33;95985.50;;;5.40;73.75
48216;BME280;34005;48.844;10.098;2023-01-08T08:43:02;95981.63;;;5.44;73.84
48216;BME280;34005;48.844;10.098;2023-01-08T08:45:30;95982.25;;;5.46;74.05
48216;BME280;34005;48.844;10.098;2023-01-08T08:47:58;95981.31;;;5.47;74.09
48216;BME280;34005;48.844;10.098;2023-01-08T08:50:25;95974.97;;;5.49;74.33
48216;BME280;34005;48.844;10.098;2023-01-08T08:52:58;95966.59;;;5.47;74.49
48216;BME280;34005;48.844;10.098;2023-01-08T08:55:27;95964.66;;;5.41;74.39
48216;BME280;34005;48.844;10.098;2023-01-08T08:58:01;95956.53;;;5.44;75.66
48216;BME280;34005;48.844;10.098;2023-01-08T09:00:29;95960.59;;;5.47;74.59
48216;BME280;34005;48.844;10.098;2023-01-08T09:02:57;95946.34;;;5.51;74.38
48216;BME280;34005;48.844;10.098;2023-01-08T09:05:26;95956.88;;;5.49;74.61
48216;BME280;34005;48.844;10.098;2023-01-08T09:07:55;95955.56;;;5.53;74.92
48216;BME280;34005;48.844;10.098;2023-01-08T09:10:24;95943.28;;;5.55;75.06
48216;BME280;34005;48.844;10.098;2023-01-08T09:12:52;95949.25;;;5.56;75.02
48216;BME280;34005;48.844;10.098;2023-01-08T09:15:20;95947.63;;;5.55;75.05
48216;BME280;34005;48.844;10.098;2023-01-08T09:17:51;95946.97;;;5.53;75.63
48216;BME280;34005;48.844;10.098;2023-01-08T09:20:19;95946.19;;;5.52;75.65
48216;BME280;34005;48.844;10.098;2023-01-08T09:22:47;95947.97;;;5.52;75.75
48216;BME280;34005;48.844;10.098;2023-01-08T09:25:14;95951.19;;;5.54;75.69
48216;BME280;34005;48.844;10.098;2023-01-08T09:27:43;95954.44;;;5.56;76.17
48216;BME280;34005;48.844;10.098;2023-01-08T09:30:11;95952.50;;;5.58;75.99
48216;BME280;34005;48.844;10.098;2023-01-08T09:32:39;95948.13;;;5.58;76.35
48216;BME280;34005;48.844;10.098;2023-01-08T09:35:07;95952.16;;;5.61;76.58
48216;BME280;34005;48.844;10.098;2023-01-08T09:37:34;95946.66;;;5.64;76.79
48216;BME280;34005;48.844;10.098;2023-01-08T09:40:13;95952.28;;;5.68;77.39
48216;BME280;34005;48.844;10.098;2023-01-08T09:42:41;95953.09;;;5.68;76.91
48216;BME280;34005;48.844;10.098;2023-01-08T09:45:15;95953.09;;;5.68;77.42
48216;BME280;34005;48.844;10.098;2023-01-08T09:47:48;95955.34;;;5.71;77.46
48216;BME280;34005;48.844;10.098;2023-01-08T09:50:16;95949.84;;;5.74;77.78
48216;BME280;34005;48.844;10.098;2023-01-08T09:52:43;95954.50;;;5.79;77.51
48216;BME280;34005;48.844;10.098;2023-01-08T09:55:13;95945.44;;;5.83;78.06
48216;BME280;34005;48.844;10.098;2023-01-08T09:57:41;95947.19;;;5.91;78.14
48216;BME280;34005;48.844;10.098;2023-01-08T10:00:14;95944.13;;;5.95;78.38
48216;BME280;34005;48.844;10.098;2023-01-08T10:02:42;95936.66;;;6.01;78.94
48216;BME280;34005;48.844;10.098;2023-01-08T10:05:12;95940.53;;;6.05;78.29
48216;BME280;34005;48.844;10.098;2023-01-08T10:07:41;95934.50;;;6.12;78.44
48216;BME280;34005;48.844;10.098;2023-01-08T10:10:16;95931.84;;;6.21;78.82
48216;BME280;34005;48.844;10.098;2023-01-08T10:12:44;95922.44;;;6.28;78.44
48216;BME280;34005;48.844;10.098;2023-01-08T10:15:15;95923.38;;;6.35;78.56
48216;BME280;34005;48.844;10.098;2023-01-08T10:17:45;95924.28;;;6.42;78.51
48216;BME280;34005;48.844;10.098;2023-01-08T10:20:15;95924.22;;;6.50;78.02
48216;BME280;34005;48.844;10.098;2023-01-08T10:22:43;95919.00;;;6.58;78.03
48216;BME280;34005;48.844;10.098;2023-01-08T10:25:13;95916.31;;;6.67;78.08
48216;BME280;34005;48.844;10.098;2023-01-08T10:27:46;95922.44;;;6.74;78.23
48216;BME280;34005;48.844;10.098;2023-01-08T10:30:17;95919.75;;;6.82;78.19
48216;BME280;34005;48.844;10.098;2023-01-08T10:32:46;95920.69;;;6.89;78.42
48216;BME280;34005;48.844;10.098;2023-01-08T10:35:16;95914.44;;;6.98;78.12
48216;BME280;34005;48.844;10.098;2023-01-08T10:37:45;95917.94;;;7.06;78.02
48216;BME280;34005;48.844;10.098;2023-01-08T10:40:27;95909.31;;;7.13;78.17
48216;BME280;34005;48.844;10.098;2023-01-08T10:43:04;95904.03;;;7.21;78.24
48216;BME280;34005;48.844;10.098;2023-01-08T10:45:34;95908.69;;;7.26;77.87
48216;BME280;34005;48.844;10.098;2023-01-08T10:48:05;95916.91;;;7.30;77.75
48216;BME280;34005;48.844;10.098;2023-01-08T10:50:33;95912.34;;;7.32;77.51
48216;BME280;34005;48.844;10.098;2023-01-08T10:53:03;95911.81;;;7.36;77.55
48216;BME280;34005;48.844;10.098;2023-01-08T10:55:32;95907.72;;;7.42;77.51
48216;BME280;34005;48.844;10.098;2023-01-08T10:58:02;95902.78;;;7.47;77.62
48216;BME280;34005;48.844;10.098;2023-01-08T11:00:34;95903.22;;;7.51;77.84
48216;BME280;34005;48.844;10.098;2023-01-08T11:03:04;95897.50;;;7.55;77.41
48216;BME280;34005;48.844;10.098;2023-01-08T11:05:33;95895.38;;;7.59;77.32
48216;BME280;34005;48.844;10.098;2023-01-08T11:08:04;95893.41;;;7.61;77.57
48216;BME280;34005;48.844;10.098;2023-01-08T11:10:34;95880.66;;;7.66;77.81
48216;BME280;34005;48.844;10.098;2023-01-08T11:13:05;95877.16;;;7.74;77.67
48216;BME280;34005;48.844;10.098;2023-01-08T11:15:37;95872.25;;;7.79;77.81
48216;BME280;34005;48.844;10.098;2023-01-08T11:18:10;95869.88;;;7.84;77.22
48216;BME280;34005;48.844;10.098;2023-01-08T11:20:39;95874.53;;;7.89;77.23
48216;BME280;34005;48.844;10.098;2023-01-08T11:23:15;95873.19;;;7.93;77.39
48216;BME280;34005;48.844;10.098;2023-01-08T11:25:46;95864.22;;;7.95;76.66
48216;BME280;34005;48.844;10.098;2023-01-08T11:28:30;95853.47;;;7.98;76.49
48216;BME280;34005;48.844;10.098;2023-01-08T11:31:09;95849.72;;;8.01;76.44
48216;BME280;34005;48.844;10.098;2023-01-08T11:33:41;95850.34;;;8.03;76.13
48216;BME280;34005;48.844;10.098;2023-01-08T11:36:12;95853.56;;;8.05;75.99
48216;BME280;34005;48.844;10.098;2023-01-08T11:38:46;95854.78;;;8.09;75.95
48216;BME280;34005;48.844;10.098;2023-01-08T11:41:31;95845.63;;;8.13;75.94
48216;BME280;34005;48.844;10.098;2023-01-08T11:44:16;95836.47;;;8.17;75.68
48216;BME280;34005;48.844;10.098;2023-01-08T11:46:55;95837.09;;;8.19;75.33
48216;BME280;34005;48.844;10.098;2023-01-08T11:49:48;95838.34;;;8.23;74.67
48216;BME280;34005;48.844;10.098;2023-01-08T11:52:28;95834.94;;;8.23;74.36
48216;BME280;34005;48.844;10.098;2023-01-08T11:55:12;95835.75;;;8.23;74.13
48216;BME280;34005;48.844;10.098;2023-01-08T11:57:51;95824.16;;;8.26;74.35
48216;BME280;34005;48.844;10.098;2023-01-08T12:00:39;95815.00;;;8.30;73.58
48216;BME280;34005;48.844;10.098;2023-01-08T12:03:17;95807.03;;;8.32;73.29
48216;BME280;34005;48.844;10.098;2023-01-08T12:05:52;95796.47;;;8.33;73.05
48216;BME280;34005;48.844;10.098;2023-01-08T12:08:28;95795.47;;;8.34;72.49
48216;BME280;34005;48.844;10.098;2023-01-08T12:11:05;95796.88;;;8.37;72.84
48216;BME280;34005;48.844;10.098;2023-01-08T12:13:54;95795.53;;;8.41;72.74
48216;BME280;34005;48.844;10.098;2023-01-08T12:16:36;95781.81;;;8.47;72.48
48216;BME280;34005;48.844;10.098;2023-01-08T12:19:19;95775.25;;;8.51;71.98
48216;BME280;34005;48.844;10.098;2023-01-08T12:22:04;95766.25;;;8.54;71.87
48216;BME280;34005;48.844;10.098;2023-01-08T12:24:48;95772.50;;;8.59;71.87
48216;BME280;34005;48.844;10.098;2023-01-08T12:27:25;95774.91;;;8.61;70.90
48216;BME280;34005;48.844;10.098;2023-01-08T12:30:24;95764.94;;;8.64;71.80
48216;BME280;34005;48.844;10.098;2023-01-08T12:33:00;95760.97;;;8.69;70.71
48216;BME280;34005;48.844;10.098;2023-01-08T12:35:35;95756.56;;;8.69;70.62
48216;BME280;34005;48.844;10.098;2023-01-08T12:38:05;95741.75;;;8.70;70.17
48216;BME280;34005;48.844;10.098;2023-01-08T12:40:36;95737.78;;;8.74;69.62
48216;BME280;34005;48.844;10.098;2023-01-08T12:43:10;95727.03;;;8.77;70.48
48216;BME280;34005;48.844;10.098;2023-01-08T12:45:43;95729.66;;;8.83;70.21
48216;BME280;34005;48.844;10.098;2023-01-08T12:48:14;95732.66;;;8.87;69.40
48216;BME280;34005;48.844;10.098;2023-01-08T12:50:51;95725.47;;;8.89;68.90
48216;BME280;34005;48.844;10.098;2023-01-08T12:53:29;95725.09;;;8.92;69.47
48216;BME280;34005;48.844;10.098;2023-01-08T12:56:09;95728.69;;;8.91;69.32
48216;BME280;34005;48.844;10.098;2023-01-08T12:58:49;95721.69;;;8.92;69.40
48216;BME280;34005;48.844;10.098;2023-01-08T13:01:28;95728.50;;;8.93;68.30
48216;BME280;34005;48.844;10.098;2023-01-08T13:04:00;95726.69;;;8.93;69.00
48216;BME280;34005;48.844;10.098;2023-01-08T13:06:36;95729.91;;;8.95;67.88
48216;BME280;34005;48.844;10.098;2023-01-08T13:09:20;95731.50;;;8.96;67.89
48216;BME280;34005;48.844;10.098;2023-01-08T13:11:51;95731.13;;;8.99;68.45
48216;BME280;34005;48.844;10.098;2023-01-08T13:14:21;95734.34;;;9.01;68.11
48216;BME280;34005;48.844;10.098;2023-01-08T13:17:03;95725.53;;;9.02;67.71
48216;BME280;34005;48.844;10.098;2023-01-08T13:19:37;95723.53;;;9.04;67.68
48216;BME280;34005;48.844;10.098;2023-01-08T13:22:21;95721.56;;;9.06;68.06
48216;BME280;34005;48.844;10.098;2023-01-08T13:24:50;95710.56;;;9.11;68.00
48216;BME280;34005;48.844;10.098;2023-01-08T13:27:28;95716.00;;;9.16;67.67
48216;BME280;34005;48.844;10.098;2023-01-08T13:29:55;95714.19;;;9.17;67.66
48216;BME280;34005;48.844;10.098;2023-01-08T13:32:40;95715.59;;;9.19;68.15
48216;BME280;34005;48.844;10.098;2023-01-08T13:35:19;95716.41;;;9.26;67.63
48216;BME280;34005;48.844;10.098;2023-01-08T13:38:03;95708.25;;;9.30;67.27
48216;BME280;34005;48.844;10.098;2023-01-08T13:40:36;95709.25;;;9.35;67.66
48216;BME280;34005;48.844;10.098;2023-01-08T13:43:09;95704.47;;;9.39;67.37
48216;BME280;34005;48.844;10.098;2023-01-08T13:45:38;95698.06;;;9.41;67.72
48216;BME280;34005;48.844;10.098;2023-01-08T13:48:19;95697.66;;;9.44;66.96
48216;BME280;34005;48.844;10.098;2023-01-08T13:50:48;95697.47;;;9.46;68.36
48216;BME280;34005;48.844;10.098;2023-01-08T13:53:17;95692.06;;;9.47;67.46
48216;BME280;34005;48.844;10.098;2023-01-08T13:55:53;95698.88;;;9.48;68.13
48216;BME280;34005;48.844;10.098;2023-01-08T13:58:24;95701.47;;;9.48;68.10
48216;BME280;34005;48.844;10.098;2023-01-08T14:00:55;95696.47;;;9.47;68.07
48216;BME280;34005;48.844;10.098;2023-01-08T14:03:25;95694.84;;;9.46;67.55
48216;BME280;34005;48.844;10.098;2023-01-08T14:06:04;95684.63;;;9.44;67.33